Time;durP1;ratioP1;P1;durP2;ratioP2;P2;SDS_P1;SDS_P2;PMS_P1;PMS_P2;Temp;Humidity;BMP_temperature;BMP_pressure;BME280_temperature;BME280_humidity;BME280_pressure;Samples;Min_cycle;Max_cycle;Signal;HPM_P1;HPM_P2
2022/11/16 00:04:41;;;;;;;3.73;2.40;;;;;11.80;99254.00;;;;10436402;28;20233;-77
2022/11/16 00:09:43;;;;;;;3.00;2.30;;;;;11.70;99260.00;;;;10479385;28;20196;-77
2022/11/16 00:14:45;;;;;;;2.23;2.03;;;;;11.80;99263.00;;;;10424505;28;20247;-77
2022/11/16 00:19:47;;;;;;;2.97;2.27;;;;;11.80;99262.00;;;;10424201;28;20206;-77
2022/11/16 00:24:49;;;;;;;3.47;2.60;;;;;11.80;99250.00;;;;10440463;28;20213;-77
2022/11/16 00:29:51;;;;;;;2.60;2.20;;;;;11.80;99236.00;;;;10439889;28;20204;-77
2022/11/16 00:34:52;;;;;;;4.73;2.83;;;;;11.80;99249.00;;;;10449801;28;20237;-77
2022/11/16 00:39:54;;;;;;;3.00;2.13;;;;;11.80;99244.00;;;;10423285;28;20202;-77
2022/11/16 00:44:56;;;;;;;2.60;2.30;;;;;11.80;99250.00;;;;10439888;28;20759;-76
2022/11/16 00:49:58;;;;;;;4.87;2.20;;;;;11.80;99248.00;;;;10410811;28;20201;-77
2022/11/16 00:55:00;;;;;;;3.63;2.70;;;;;11.80;99275.00;;;;10430556;28;20225;-76
2022/11/16 01:00:03;;;;;;;5.20;2.30;;;;;11.80;99271.00;;;;10464117;28;20198;-77
2022/11/16 01:05:09;;;;;;;2.83;2.00;;;;;11.70;99268.00;;;;10461148;28;20275;-76
2022/11/16 01:10:13;;;;;;;5.17;1.77;;;;;11.60;99274.00;;;;10497599;28;20221;-77
2022/11/16 01:15:18;;;;;;;3.80;2.47;;;;;11.50;99285.00;;;;10447070;28;20178;-76
2022/11/16 01:20:23;;;;;;;1.53;1.13;;;;;11.30;99299.00;;;;10479769;28;20276;-76
2022/11/16 01:25:25;;;;;;;1.30;1.20;;;;;11.00;99282.00;;;;10489008;28;20201;-76
2022/11/16 01:30:27;;;;;;;1.97;1.10;;;;;10.90;99279.00;;;;10479037;28;20192;-76
2022/11/16 01:35:35;;;;;;;3.27;1.50;;;;;10.80;99273.00;;;;10430340;28;20247;-76
2022/11/16 01:40:38;;;;;;;2.27;1.53;;;;;10.70;99266.00;;;;10461849;28;20648;-76
2022/11/16 01:45:41;;;;;;;1.90;1.07;;;;;10.70;99289.00;;;;10470940;28;20241;-76
2022/11/16 01:50:46;;;;;;;2.20;1.63;;;;;10.60;99279.00;;;;10436533;28;20720;-76
2022/11/16 01:55:48;;;;;;;1.20;0.93;;;;;10.60;99284.00;;;;10436800;28;20174;-77
2022/11/16 02:01:01;;;;;;;1.50;1.40;;;;;10.50;99280.00;;;;10435022;28;20641;-76
2022/11/16 02:06:26;;;;;;;1.97;1.20;;;;;10.40;99287.00;;;;10449198;28;20682;-76
2022/11/16 02:11:52;;;;;;;2.13;1.53;;;;;10.30;99288.00;;;;10419581;28;20195;-76
2022/11/16 02:17:14;;;;;;;3.77;1.17;;;;;10.30;99281.00;;;;10423359;28;20224;-76
2022/11/16 02:22:56;;;;;;;2.03;1.23;;;;;10.20;99279.00;;;;10443929;28;20185;-76
2022/11/16 02:28:25;;;;;;;2.27;0.97;;;;;10.00;99276.00;;;;10459957;28;20694;-76
2022/11/16 02:33:33;;;;;;;5.33;1.33;;;;;10.00;99287.00;;;;10456866;28;20251;-76
2022/11/16 02:38:41;;;;;;;2.60;0.87;;;;;9.90;99285.00;;;;10402954;28;20186;-77
2022/11/16 02:43:51;;;;;;;3.40;1.33;;;;;9.90;99289.00;;;;10401667;28;20213;-76
2022/11/16 02:48:57;;;;;;;1.37;1.20;;;;;9.90;99307.00;;;;10475905;28;20201;-77
2022/11/16 02:54:02;;;;;;;2.93;1.80;;;;;9.90;99296.00;;;;10459013;28;20185;-76
2022/11/16 02:59:07;;;;;;;4.80;1.90;;;;;9.90;99307.00;;;;10442381;28;20251;-76
2022/11/16 03:04:19;;;;;;;2.13;1.20;;;;;9.90;99308.00;;;;10466878;28;20210;-77
2022/11/16 03:09:27;;;;;;;1.83;0.90;;;;;10.00;99307.00;;;;10453056;28;20216;-77
2022/11/16 03:14:48;;;;;;;4.73;1.50;;;;;9.90;99315.00;;;;10425773;28;20239;-76
2022/11/16 03:20:03;;;;;;;1.40;1.03;;;;;9.90;99315.00;;;;10401027;28;20212;-76
2022/11/16 03:25:11;;;;;;;1.33;0.90;;;;;9.90;99315.00;;;;10417389;28;20217;-76
2022/11/16 03:30:18;;;;;;;10.43;1.47;;;;;9.90;99329.00;;;;10427262;28;20197;-77
2022/11/16 03:35:41;;;;;;;0.90;0.87;;;;;9.90;99329.00;;;;10474009;28;20272;-77
2022/11/16 03:40:45;;;;;;;2.97;1.70;;;;;10.00;99333.00;;;;10458358;28;20709;-77
2022/11/16 03:45:48;;;;;;;5.60;1.40;;;;;10.00;99339.00;;;;10416653;28;20217;-76
2022/11/16 03:50:51;;;;;;;1.10;1.00;;;;;9.90;99335.00;;;;10427734;28;20204;-77
2022/11/16 03:55:54;;;;;;;4.63;1.53;;;;;9.70;99339.00;;;;10442382;28;20682;-76
2022/11/16 04:00:56;;;;;;;4.67;1.10;;;;;9.50;99342.00;;;;10474067;28;20190;-76
2022/11/16 04:38:14;;;;;;;6.60;1.40;;;;;8.60;99345.00;;;;10423305;28;20198;-76
2022/11/16 04:43:16;;;;;;;5.83;2.27;;;;;8.50;99340.00;;;;10422947;28;20191;-76
2022/11/16 04:48:19;;;;;;;3.77;2.10;;;;;8.50;99332.00;;;;10422619;28;20842;-76
2022/11/16 04:53:26;;;;;;;3.20;1.63;;;;;8.40;99340.00;;;;10422678;28;20320;-76
2022/11/16 04:58:47;;;;;;;4.40;2.37;;;;;8.50;99341.00;;;;10408757;28;20208;-76
2022/11/16 05:03:49;;;;;;;7.53;2.13;;;;;8.40;99336.00;;;;10406318;28;20695;-76
2022/11/16 05:08:52;;;;;;;7.63;1.97;;;;;8.40;99328.00;;;;10444093;28;20210;-76
2022/11/16 05:13:54;;;;;;;2.43;1.63;;;;;8.30;99332.00;;;;10462768;28;20281;-76
2022/11/16 05:24:34;;;;;;;2.70;1.60;;;;;8.30;99334.00;;;;10421018;28;20619;-76
2022/11/16 05:29:39;;;;;;;3.80;1.50;;;;;8.30;99337.00;;;;10458687;28;20619;-76
2022/11/16 05:34:42;;;;;;;6.70;1.57;;;;;8.20;99330.00;;;;10462008;28;20196;-76
2022/11/16 05:39:44;;;;;;;3.83;1.33;;;;;8.20;99333.00;;;;10444635;28;20263;-76
2022/11/16 05:44:46;;;;;;;7.23;1.40;;;;;8.20;99337.00;;;;10445305;28;20263;-76
2022/11/16 05:49:49;;;;;;;6.90;1.63;;;;;8.20;99336.00;;;;10445179;28;20679;-76
2022/11/16 05:54:52;;;;;;;3.77;1.17;;;;;8.10;99334.00;;;;10461197;28;20192;-76
2022/11/16 05:59:54;;;;;;;2.43;1.40;;;;;8.00;99352.00;;;;10460888;28;20194;-76
2022/11/16 06:04:56;;;;;;;2.73;1.40;;;;;8.00;99361.00;;;;10476951;28;20845;-76
2022/11/16 06:09:58;;;;;;;3.63;1.67;;;;;8.00;99360.00;;;;10436506;28;20252;-76
2022/11/16 06:15:00;;;;;;;6.87;2.13;;;;;8.00;99366.00;;;;10435380;28;20213;-76
2022/11/16 06:20:02;;;;;;;4.90;2.00;;;;;7.90;99365.00;;;;10460173;28;20675;-76
2022/11/16 06:25:08;;;;;;;5.60;2.53;;;;;7.90;99372.00;;;;10460120;28;20582;-76
2022/11/16 06:30:14;;;;;;;5.00;1.60;;;;;7.80;99370.00;;;;10459528;28;20198;-76
2022/11/16 06:35:16;;;;;;;6.93;1.70;;;;;7.80;99370.00;;;;10443062;28;20190;-76
2022/11/16 06:40:18;;;;;;;4.27;2.07;;;;;7.80;99384.00;;;;10459995;28;20193;-76
2022/11/16 06:45:20;;;;;;;6.37;1.80;;;;;7.80;99381.00;;;;10442880;28;20198;-76
2022/11/16 06:50:27;;;;;;;5.47;2.00;;;;;7.80;99381.00;;;;10443264;28;20178;-76
2022/11/16 06:55:30;;;;;;;7.27;1.67;;;;;7.80;99387.00;;;;10442467;28;20178;-76
2022/11/16 07:00:33;;;;;;;8.80;2.57;;;;;7.80;99382.00;;;;10458857;28;20189;-76
2022/11/16 07:05:39;;;;;;;7.77;2.57;;;;;7.80;99382.00;;;;10421424;28;20221;-76
2022/11/16 07:10:45;;;;;;;8.37;2.30;;;;;7.80;99388.00;;;;10425112;28;20189;-76
2022/11/16 07:15:47;;;;;;;10.67;2.63;;;;;7.80;99384.00;;;;10442200;28;20186;-76
2022/11/16 07:20:49;;;;;;;5.20;2.10;;;;;7.80;99391.00;;;;10425732;28;20613;-76
2022/11/16 07:25:51;;;;;;;5.17;2.00;;;;;7.80;99382.00;;;;10425079;28;20222;-76
2022/11/16 07:31:08;;;;;;;5.53;1.90;;;;;7.80;99383.00;;;;10443075;28;20190;-76
2022/11/16 07:36:13;;;;;;;8.23;1.83;;;;;7.90;99369.00;;;;10472965;28;20621;-75
2022/11/16 07:41:17;;;;;;;7.47;2.47;;;;;7.90;99386.00;;;;10441196;28;20205;-76
2022/11/16 07:46:31;;;;;;;9.33;2.40;;;;;8.00;99381.00;;;;10457621;28;20212;-76
2022/11/16 07:51:51;;;;;;;6.33;2.23;;;;;8.10;99385.00;;;;10443769;28;20834;-76
2022/11/16 07:57:07;;;;;;;7.70;2.37;;;;;8.20;99388.00;;;;10422951;28;20189;-76
2022/11/16 08:02:09;;;;;;;15.30;2.67;;;;;8.30;99394.00;;;;10421009;28;20280;-76
2022/11/16 08:07:15;;;;;;;11.23;2.43;;;;;8.40;99395.00;;;;10435737;28;20217;-77
2022/11/16 08:12:25;;;;;;;12.73;2.50;;;;;8.50;99388.00;;;;10424298;28;20198;-76
2022/11/16 08:17:28;;;;;;;6.43;2.13;;;;;8.60;99390.00;;;;10423765;28;20190;-76
2022/11/16 08:22:32;;;;;;;6.67;2.17;;;;;8.80;99381.00;;;;10451370;28;20189;-76
2022/11/16 08:27:35;;;;;;;7.10;1.87;;;;;9.10;99383.00;;;;10481098;28;20213;-77
2022/11/16 08:32:37;;;;;;;10.17;2.20;;;;;9.40;99373.00;;;;10447364;28;20209;-77
2022/11/16 08:37:40;;;;;;;8.13;2.57;;;;;9.80;99375.00;;;;10460327;28;20194;-77
2022/11/16 08:42:43;;;;;;;8.30;2.30;;;;;10.30;99362.00;;;;10447517;28;20308;-77
2022/11/16 08:47:46;;;;;;;7.63;2.60;;;;;10.70;99354.00;;;;10448186;28;20240;-77
2022/11/16 08:52:48;;;;;;;6.97;2.63;;;;;11.00;99358.00;;;;10430824;28;20247;-77
2022/11/16 08:57:51;;;;;;;9.73;2.00;;;;;11.20;99372.00;;;;10446696;28;20186;-77
2022/11/16 09:02:53;;;;;;;7.03;1.80;;;;;11.40;99366.00;;;;10453974;28;20201;-77
2022/11/16 09:07:55;;;;;;;7.10;2.00;;;;;11.50;99376.00;;;;10440748;28;20241;-77
2022/11/16 09:12:57;;;;;;;4.63;1.93;;;;;11.60;99382.00;;;;10424730;28;20190;-77
2022/11/16 09:17:59;;;;;;;7.87;1.70;;;;;11.50;99395.00;;;;10443038;28;20240;-77
2022/11/16 09:23:00;;;;;;;6.70;1.63;;;;;11.30;99392.00;;;;10440585;28;20264;-77
2022/11/16 09:28:02;;;;;;;5.40;1.33;;;;;11.30;99395.00;;;;10448633;28;20654;-77
2022/11/16 09:33:04;;;;;;;5.93;1.60;;;;;11.10;99395.00;;;;10445480;28;20308;-76
2022/11/16 09:38:08;;;;;;;8.03;1.70;;;;;11.50;99402.00;;;;10449224;28;20197;-77
2022/11/16 09:43:28;;;;;;;6.87;2.00;;;;;11.70;99392.00;;;;10460927;28;20670;-77
2022/11/16 09:48:34;;;;;;;9.43;1.63;;;;;11.70;99399.00;;;;10422663;28;20218;-77
2022/11/16 09:54:00;;;;;;;5.70;1.83;;;;;11.70;99410.00;;;;10479450;28;20194;-77
2022/11/16 09:59:07;;;;;;;11.40;1.60;;;;;11.70;99416.00;;;;10447991;28;20824;-77
2022/11/16 10:04:25;;;;;;;8.90;1.63;;;;;11.80;99411.00;;;;10435404;28;20205;-77
2022/11/16 10:09:28;;;;;;;3.27;1.60;;;;;11.80;99412.00;;;;10419348;28;20191;-77
2022/11/16 10:14:47;;;;;;;7.47;1.37;;;;;11.80;99415.00;;;;10420308;28;20202;-77
2022/11/16 10:19:55;;;;;;;4.37;1.37;;;;;11.90;99417.00;;;;10444156;28;20200;-78
2022/11/16 10:25:01;;;;;;;6.73;1.83;;;;;12.30;99407.00;;;;10404630;28;20260;-77
2022/11/16 10:30:06;;;;;;;10.50;2.13;;;;;13.10;99390.00;;;;10403156;28;20190;-77
2022/11/16 10:35:14;;;;;;;5.33;1.43;;;;;13.70;99380.00;;;;10450187;28;20191;-77
2022/11/16 10:40:23;;;;;;;5.07;1.73;;;;;14.10;99386.00;;;;10416830;28;20190;-77
2022/11/16 10:45:36;;;;;;;6.87;1.60;;;;;14.20;99361.00;;;;10417842;28;20244;-78
2022/11/16 10:50:45;;;;;;;3.27;1.00;;;;;14.30;99360.00;;;;10439754;28;20194;-78
2022/11/16 10:56:11;;;;;;;4.70;1.30;;;;;13.40;99361.00;;;;10449643;28;20197;-78
2022/11/16 11:01:12;;;;;;;8.27;1.67;;;;;13.30;99371.00;;;;10456594;28;20198;-77
2022/11/16 11:06:15;;;;;;;12.13;1.97;;;;;13.80;99364.00;;;;10472780;28;20255;-79
2022/11/16 11:16:41;;;;;;;5.57;1.33;;;;;14.70;99362.00;;;;10473091;28;20204;-78
2022/11/16 11:21:44;;;;;;;5.97;1.50;;;;;15.10;99355.00;;;;10448467;28;20201;-79
2022/11/16 11:26:52;;;;;;;7.55;1.90;;;;;15.00;99364.00;;;;10430811;28;20279;-78
2022/11/16 11:31:59;;;;;;;4.68;1.20;;;;;14.90;99359.00;;;;10456592;28;20660;-78
2022/11/16 11:37:02;;;;;;;4.07;1.25;;;;;15.30;99354.00;;;;10461564;28;20190;-78
2022/11/16 11:42:25;;;;;;;5.03;1.30;;;;;14.20;99361.00;;;;10482552;28;20200;-78
2022/11/16 11:47:42;;;;;;;6.77;1.40;;;;;14.00;99335.00;;;;10470668;28;20201;-77
2022/11/16 11:53:05;;;;;;;3.38;0.98;;;;;14.70;99332.00;;;;10487130;28;20193;-78
2022/11/16 11:58:15;;;;;;;2.97;1.42;;;;;15.00;99325.00;;;;10486051;28;20201;-78
2022/11/16 12:03:52;;;;;;;6.95;1.40;;;;;14.80;99324.00;;;;10450443;28;20194;-79
2022/11/16 12:09:06;;;;;;;9.38;1.70;;;;;14.80;99322.00;;;;10411262;28;20229;-78
2022/11/16 12:14:25;;;;;;;4.07;1.58;;;;;14.80;99326.00;;;;10430047;28;20649;-79
2022/11/16 12:19:45;;;;;;;6.32;1.23;;;;;14.00;99327.00;;;;10455015;28;20208;-78
2022/11/16 12:25:04;;;;;;;4.00;1.10;;;;;13.70;99308.00;;;;10450473;28;20224;-78
2022/11/16 12:30:08;;;;;;;8.15;1.55;;;;;13.20;99298.00;;;;10455078;28;20674;-78
2022/11/16 12:35:38;;;;;;;17.98;1.80;;;;;13.10;99297.00;;;;10482788;28;20185;-78
2022/11/16 12:40:56;;;;;;;4.90;1.27;;;;;13.20;99286.00;;;;10475053;28;20193;-78
2022/11/16 12:46:11;;;;;;;4.50;1.33;;;;;13.20;99283.00;;;;10470205;28;20205;-78
2022/11/16 12:51:49;;;;;;;7.27;1.70;;;;;13.20;99289.00;;;;10446854;28;20190;-78
2022/11/16 12:57:01;;;;;;;6.03;1.20;;;;;13.90;99289.00;;;;10462635;28;20177;-78
2022/11/16 13:02:06;;;;;;;5.20;1.47;;;;;13.90;99286.00;;;;10462724;28;20193;-78
2022/11/16 13:07:20;;;;;;;9.57;1.60;;;;;13.40;99294.00;;;;10428428;28;20218;-78
2022/11/16 13:12:23;;;;;;;6.33;1.53;;;;;13.60;99300.00;;;;10484747;28;20186;-78
2022/11/16 13:17:34;;;;;;;5.73;1.50;;;;;13.20;99288.00;;;;10446091;28;20236;-78
2022/11/16 13:22:37;;;;;;;7.10;1.37;;;;;13.30;99287.00;;;;10462930;28;20630;-78
2022/11/16 13:27:59;;;;;;;3.73;1.27;;;;;13.50;99281.00;;;;10446633;28;20213;-78
2022/11/16 13:33:04;;;;;;;3.77;1.10;;;;;13.90;99273.00;;;;10475015;28;20201;-78
2022/11/16 13:38:12;;;;;;;9.70;1.38;;;;;13.90;99270.00;;;;10406018;28;20202;-78
2022/11/16 13:43:16;;;;;;;9.85;1.42;;;;;13.70;99283.00;;;;10495438;28;20193;-79
2022/11/16 13:48:29;;;;;;;6.30;1.20;;;;;13.00;99274.00;;;;10495121;28;20371;-78
2022/11/16 13:53:37;;;;;;;10.00;1.73;;;;;12.90;99257.00;;;;10416102;28;20195;-78
2022/11/16 13:58:59;;;;;;;5.33;1.37;;;;;12.60;99231.00;;;;10447569;28;20560;-78
2022/11/16 14:04:37;;;;;;;6.20;2.00;;;;;12.60;99223.00;;;;10454932;28;20203;-78
2022/11/16 14:09:41;;;;;;;6.20;2.10;;;;;12.70;99212.00;;;;10457167;28;20209;-78
2022/11/16 14:15:01;;;;;;;5.67;1.60;;;;;12.60;99206.00;;;;10436086;28;20572;-78
2022/11/16 14:20:10;;;;;;;5.37;1.73;;;;;12.30;99212.00;;;;10443364;28;20194;-78
2022/11/16 14:25:42;;;;;;;6.13;1.90;;;;;12.70;99202.00;;;;10424718;28;20955;-78
2022/11/16 14:31:10;;;;;;;5.97;1.27;;;;;12.40;99198.00;;;;10443067;28;20193;-78
2022/11/16 14:36:13;;;;;;;4.77;1.33;;;;;12.00;99195.00;;;;10437482;28;20208;-77
2022/11/16 14:41:21;;;;;;;4.90;1.67;;;;;11.70;99199.00;;;;10447984;28;20186;-78
2022/11/16 14:46:35;;;;;;;5.70;1.30;;;;;11.50;99182.00;;;;10436996;28;20205;-78
2022/11/16 14:51:43;;;;;;;6.20;1.70;;;;;11.50;99178.00;;;;10416956;28;20190;-78
2022/11/16 14:56:56;;;;;;;11.23;2.97;;;;;11.50;99173.00;;;;10399376;28;20214;-77
2022/11/16 15:02:11;;;;;;;6.70;2.30;;;;;11.50;99167.00;;;;10433812;28;20534;-77
2022/11/16 15:07:14;;;;;;;7.43;1.53;;;;;11.40;99163.00;;;;10426057;28;20241;-78
2022/11/16 15:12:40;;;;;;;6.70;1.83;;;;;11.30;99154.00;;;;10424614;28;20317;-78
2022/11/16 15:18:11;;;;;;;4.73;2.10;;;;;11.30;99151.00;;;;10441091;28;20228;-78
2022/11/16 15:23:14;;;;;;;5.13;2.00;;;;;11.10;99156.00;;;;10456827;28;20288;-79
2022/11/16 15:28:25;;;;;;;8.10;2.47;;;;;11.00;99146.00;;;;10441815;28;20267;-78
2022/11/16 15:33:32;;;;;;;3.93;2.10;;;;;10.80;99139.00;;;;10417584;28;20206;-78
2022/11/16 15:38:36;;;;;;;12.40;2.50;;;;;10.80;99129.00;;;;10439969;28;20189;-78
2022/11/16 15:43:43;;;;;;;6.67;1.87;;;;;10.60;99119.00;;;;10432632;28;20408;-77
2022/11/16 15:49:16;;;;;;;3.73;1.77;;;;;10.50;99104.00;;;;10421152;28;20280;-77
2022/11/16 15:54:25;;;;;;;4.77;2.03;;;;;10.40;99094.00;;;;10455543;28;20208;-78
2022/11/16 15:59:30;;;;;;;4.50;1.50;;;;;10.40;99094.00;;;;10439255;28;20190;-78
2022/11/16 16:04:32;;;;;;;4.70;2.23;;;;;10.20;99093.00;;;;10414917;28;20198;-78
2022/11/16 16:09:39;;;;;;;6.47;1.80;;;;;10.10;99087.00;;;;10418868;28;20205;-77
2022/11/16 16:14:42;;;;;;;4.63;1.80;;;;;10.10;99072.00;;;;10440458;28;20196;-77
2022/11/16 16:19:45;;;;;;;6.93;1.90;;;;;10.00;99062.00;;;;10414907;28;20202;-78
2022/11/16 16:24:47;;;;;;;5.57;1.70;;;;;10.00;99053.00;;;;10413063;28;20216;-77
2022/11/16 16:29:51;;;;;;;7.33;2.40;;;;;10.00;99053.00;;;;10464629;28;20201;-77
2022/11/16 16:34:55;;;;;;;3.83;1.50;;;;;10.00;99048.00;;;;10448531;28;20194;-77
2022/11/16 16:39:57;;;;;;;3.10;1.50;;;;;10.00;99031.00;;;;10420268;28;20205;-77
2022/11/16 16:45:00;;;;;;;4.20;1.30;;;;;9.90;99039.00;;;;10438115;28;20210;-77
2022/11/16 16:50:02;;;;;;;4.43;1.83;;;;;9.90;99027.00;;;;10488842;28;20195;-77
2022/11/16 16:55:05;;;;;;;2.93;1.73;;;;;9.80;99021.00;;;;10462497;28;20686;-77
2022/11/16 17:00:09;;;;;;;2.60;1.33;;;;;9.80;99017.00;;;;10442006;28;20183;-77
2022/11/16 17:05:11;;;;;;;6.13;2.37;;;;;9.80;99012.00;;;;10433204;28;20214;-77
2022/11/16 17:10:13;;;;;;;8.27;2.03;;;;;9.70;99006.00;;;;10444282;28;20545;-77
2022/11/16 17:15:15;;;;;;;3.73;1.60;;;;;9.70;99011.00;;;;10472154;28;20191;-77
2022/11/16 17:20:20;;;;;;;2.73;1.87;;;;;9.70;98997.00;;;;10470449;28;20194;-77
2022/11/16 17:25:22;;;;;;;4.80;2.03;;;;;9.70;98986.00;;;;10438833;28;20268;-77
2022/11/16 17:30:24;;;;;;;7.70;2.60;;;;;9.60;98996.00;;;;10421308;28;20218;-77
2022/11/16 17:35:27;;;;;;;7.00;2.63;;;;;9.60;99006.00;;;;10436171;28;20826;-77
2022/11/16 17:40:29;;;;;;;4.43;2.40;;;;;9.70;98992.00;;;;10442720;28;20202;-76
2022/11/16 17:45:31;;;;;;;7.40;2.43;;;;;9.70;98989.00;;;;10436292;28;20228;-77
2022/11/16 17:50:33;;;;;;;5.33;2.93;;;;;9.70;98993.00;;;;10406859;28;20602;-77
2022/11/16 17:55:36;;;;;;;3.93;1.77;;;;;9.70;98982.00;;;;10450000;28;20206;-77
2022/11/16 18:00:38;;;;;;;4.60;2.50;;;;;9.70;98979.00;;;;10405147;28;20197;-77
2022/11/16 18:05:40;;;;;;;3.53;2.43;;;;;9.60;98984.00;;;;10396102;28;20271;-77
2022/11/16 18:10:42;;;;;;;3.80;2.27;;;;;9.70;98979.00;;;;10434119;28;20657;-78
2022/11/16 18:15:44;;;;;;;5.73;2.70;;;;;9.80;98973.00;;;;10457852;28;20201;-78
2022/11/16 18:20:49;;;;;;;5.93;2.60;;;;;9.80;98972.00;;;;10432029;28;20205;-77
2022/11/16 18:25:51;;;;;;;5.23;2.57;;;;;9.90;98963.00;;;;10441133;28;20223;-77
2022/11/16 18:31:20;;;;;;;8.43;2.60;;;;;9.90;98960.00;;;;10441924;28;20198;-77
2022/11/16 18:36:22;;;;;;;2.77;2.20;;;;;10.00;98948.00;;;;10398400;28;20289;-77
2022/11/16 18:41:27;;;;;;;4.83;2.43;;;;;10.00;98934.00;;;;10455943;28;20691;-77
2022/11/16 18:46:31;;;;;;;7.13;2.40;;;;;10.00;98914.00;;;;10441534;28;20201;-77
2022/11/16 18:51:33;;;;;;;3.63;2.23;;;;;10.00;98896.00;;;;10440479;28;20197;-77
2022/11/16 18:56:35;;;;;;;6.93;2.63;;;;;10.00;98880.00;;;;10440631;28;20548;-77
2022/11/16 19:01:37;;;;;;;6.43;2.57;;;;;10.00;98859.00;;;;10438012;28;20724;-77
2022/11/16 19:06:38;;;;;;;4.00;2.10;;;;;10.00;98853.00;;;;10399279;28;20249;-77
2022/11/16 19:11:40;;;;;;;3.07;1.90;;;;;10.00;98839.00;;;;10463302;28;20243;-78
2022/11/16 19:16:45;;;;;;;6.87;2.37;;;;;10.00;98826.00;;;;10433587;28;20538;-77
2022/11/16 19:21:57;;;;;;;8.57;2.67;;;;;10.00;98809.00;;;;10435261;28;20262;-77
2022/11/16 19:26:59;;;;;;;8.87;2.30;;;;;10.10;98786.00;;;;10438990;28;20274;-77
2022/11/16 19:32:00;;;;;;;7.43;2.30;;;;;10.10;98798.00;;;;10410426;28;20198;-77
2022/11/16 19:37:02;;;;;;;8.00;3.40;;;;;10.20;98779.00;;;;10474198;28;20312;-77
2022/11/16 19:42:04;;;;;;;8.63;3.20;;;;;10.20;98779.00;;;;10414939;28;20276;-77
2022/11/16 19:47:06;;;;;;;4.73;2.50;;;;;10.20;98759.00;;;;10423389;28;20198;-77
2022/11/16 19:52:08;;;;;;;4.47;1.93;;;;;10.10;98747.00;;;;10424297;28;20255;-77
2022/11/16 19:57:11;;;;;;;7.30;2.50;;;;;10.10;98731.00;;;;10455299;28;20190;-76
2022/11/16 20:02:13;;;;;;;4.93;2.23;;;;;10.00;98713.00;;;;10438711;28;20239;-76
2022/11/16 20:07:16;;;;;;;7.00;2.27;;;;;10.00;98711.00;;;;10429728;28;20221;-77
2022/11/16 20:12:18;;;;;;;7.53;2.40;;;;;10.00;98704.00;;;;10431084;28;20247;-77
2022/11/16 20:17:20;;;;;;;6.80;2.47;;;;;10.00;98693.00;;;;10447387;28;20198;-76
2022/11/16 20:22:22;;;;;;;5.77;2.20;;;;;10.00;98667.00;;;;10457038;28;20202;-77
2022/11/16 20:27:24;;;;;;;4.67;1.77;;;;;10.00;98643.00;;;;10462742;28;20225;-77
2022/11/16 20:32:26;;;;;;;3.87;1.63;;;;;9.90;98617.00;;;;10480600;28;20619;-77
2022/11/16 20:37:28;;;;;;;11.13;1.40;;;;;9.90;98616.00;;;;10411812;28;20346;-76
2022/11/16 20:42:30;;;;;;;5.90;1.40;;;;;10.00;98598.00;;;;10422894;28;20194;-77
2022/11/16 20:47:32;;;;;;;4.07;1.60;;;;;10.00;98575.00;;;;10423418;28;20206;-77
2022/11/16 20:52:34;;;;;;;4.20;1.50;;;;;10.00;98558.00;;;;10438880;28;20301;-77
2022/11/16 20:57:43;;;;;;;5.90;1.23;;;;;10.00;98544.00;;;;10446597;28;20197;-76
2022/11/16 21:02:45;;;;;;;4.47;1.00;;;;;10.00;98520.00;;;;10463336;28;20216;-77
2022/11/16 21:07:47;;;;;;;5.37;1.13;;;;;10.00;98477.00;;;;10447282;28;20749;-76
2022/11/16 21:18:09;;;;;;;1.70;0.83;;;;;10.00;98415.00;;;;10458295;28;20201;-77
2022/11/16 21:23:11;;;;;;;1.33;0.80;;;;;10.00;98392.00;;;;10461988;28;20251;-77
2022/11/16 21:28:12;;;;;;;5.93;0.70;;;;;10.00;98370.00;;;;10444401;28;20672;-77
2022/11/16 21:33:14;;;;;;;0.80;0.80;;;;;10.00;98355.00;;;;10444184;28;20185;-77
2022/11/16 21:38:16;;;;;;;0.83;0.67;;;;;10.00;98330.00;;;;10407227;28;20185;-77
2022/11/16 21:43:19;;;;;;;5.87;1.10;;;;;10.00;98317.00;;;;10461338;28;20648;-77
2022/11/16 21:48:20;;;;;;;1.27;0.90;;;;;10.00;98308.00;;;;10403278;28;20215;-77
2022/11/16 21:53:22;;;;;;;2.40;0.90;;;;;10.10;98299.00;;;;10435417;28;20194;-77
2022/11/16 21:58:25;;;;;;;2.70;1.10;;;;;10.10;98271.00;;;;10430629;28;20668;-77
2022/11/16 22:03:29;;;;;;;0.57;0.47;;;;;10.10;98272.00;;;;10443895;28;20708;-76
2022/11/16 22:08:31;;;;;;;0.87;0.47;;;;;10.20;98258.00;;;;10459113;28;20286;-77
2022/11/16 22:13:34;;;;;;;1.03;0.57;;;;;10.20;98245.00;;;;10443427;28;20198;-76
2022/11/16 22:18:37;;;;;;;1.23;0.40;;;;;10.20;98231.00;;;;10476434;28;20193;-77
2022/11/16 22:23:39;;;;;;;2.07;0.93;;;;;10.20;98214.00;;;;10458864;28;20194;-77
2022/11/16 22:28:42;;;;;;;2.30;0.57;;;;;10.20;98189.00;;;;10441486;28;20721;-76
2022/11/16 22:33:43;;;;;;;0.37;0.37;;;;;10.20;98181.00;;;;10434806;28;20182;-76
2022/11/16 22:38:45;;;;;;;3.43;0.60;;;;;10.20;98155.00;;;;10447861;28;20187;-77
2022/11/16 22:43:47;;;;;;;0.70;0.50;;;;;10.20;98155.00;;;;10474953;28;20319;-77
2022/11/16 22:48:49;;;;;;;0.30;0.30;;;;;10.30;98143.00;;;;10444964;28;20261;-77
2022/11/16 22:53:53;;;;;;;1.00;0.47;;;;;10.30;98122.00;;;;10416669;28;20191;-76
2022/11/16 22:58:55;;;;;;;0.67;0.30;;;;;10.30;98089.00;;;;10383799;28;20642;-77
2022/11/16 23:03:57;;;;;;;0.73;0.50;;;;;10.30;98061.00;;;;10441124;28;20202;-76
2022/11/16 23:08:59;;;;;;;0.30;0.30;;;;;10.30;98044.00;;;;10433974;28;20246;-77
2022/11/16 23:30:07;;;;;;;0.97;0.40;;;;;10.40;98011.00;;;;10430336;28;20696;-76
2022/11/16 23:35:13;;;;;;;1.40;0.50;;;;;10.40;98015.00;;;;10425473;28;20717;-76
2022/11/16 23:40:15;;;;;;;0.40;0.40;;;;;10.50;98014.00;;;;10429923;28;20193;-76
2022/11/16 23:45:19;;;;;;;0.20;0.20;;;;;10.50;98023.00;;;;10440955;28;20201;-76
2022/11/16 23:50:21;;;;;;;0.30;0.27;;;;;10.50;98028.00;;;;10491304;28;20213;-76
2022/11/16 23:55:22;;;;;;;0.37;0.30;;;;;10.60;98010.00;;;;10455346;28;20190;-76
